Time;durP1;ratioP1;P1;durP2;ratioP2;P2;SDS_P1;SDS_P2;PMS_P1;PMS_P2;Temp;Humidity;BMP_temperature;BMP_pressure;BME280_temperature;BME280_humidity;BME280_pressure;Samples;Min_cycle;Max_cycle;Signal;HPM_P1;HPM_P2
2022/04/12 00:02:16;;;;;;;5.73;2.37;;;;;1.80;96893.00;;;;4999524;28;20457;-87
2022/04/12 00:04:48;;;;;;;2.43;2.07;;;;;1.90;96900.00;;;;4995663;28;20442;-87
2022/04/12 00:07:20;;;;;;;6.60;2.63;;;;;1.70;96880.00;;;;5001583;28;20474;-87
2022/04/12 00:09:51;;;;;;;4.70;2.97;;;;;1.70;96881.00;;;;5002592;28;20446;-87
2022/04/12 00:12:22;;;;;;;3.33;3.03;;;;;1.40;96878.00;;;;5001816;28;20493;-87
2022/04/12 00:14:53;;;;;;;3.13;2.77;;;;;1.10;96884.00;;;;4997523;28;20813;-87
2022/04/12 00:20:13;;;;;;;4.27;2.70;;;;;2.00;96879.00;;;;4985475;28;20442;-87
2022/04/12 00:22:45;;;;;;;2.80;2.33;;;;;2.10;96873.00;;;;4989403;28;20457;-87
2022/04/12 00:25:16;;;;;;;3.43;3.13;;;;;2.30;96868.00;;;;4993945;28;21194;-87
2022/04/12 00:27:47;;;;;;;3.37;3.07;;;;;2.40;96868.00;;;;4994559;28;20720;-87
2022/04/12 00:30:19;;;;;;;5.60;2.50;;;;;2.30;96863.00;;;;4992646;28;20438;-88
2022/04/12 00:32:52;;;;;;;2.97;2.67;;;;;2.00;96852.00;;;;4993585;28;20505;-88
2022/04/12 00:35:26;;;;;;;5.27;3.00;;;;;1.50;96851.00;;;;4996952;28;20451;-87
2022/04/12 00:37:57;;;;;;;4.70;2.97;;;;;1.70;96857.00;;;;4988011;28;20661;-88
2022/04/12 00:40:28;;;;;;;4.67;3.20;;;;;1.50;96856.00;;;;4991061;28;20884;-86
2022/04/12 00:43:04;;;;;;;5.23;3.13;;;;;1.30;96846.00;;;;4982903;28;20457;-87
2022/04/12 00:45:36;;;;;;;2.87;2.60;;;;;1.20;96842.00;;;;4989131;28;20437;-87
2022/04/12 00:48:07;;;;;;;2.73;2.50;;;;;1.30;96840.00;;;;4998266;28;20488;-87
2022/04/12 00:50:41;;;;;;;3.50;3.20;;;;;1.40;96848.00;;;;5000583;28;20442;-87
2022/04/12 00:53:13;;;;;;;5.23;3.07;;;;;0.80;96834.00;;;;4998836;28;20477;-87
2022/04/12 00:55:44;;;;;;;6.00;2.97;;;;;1.20;96845.00;;;;4996895;28;20445;-88
2022/04/12 00:58:15;;;;;;;3.33;3.03;;;;;1.30;96849.00;;;;4998745;28;20446;-86
2022/04/12 01:00:46;;;;;;;8.97;3.93;;;;;1.30;96841.00;;;;5003230;28;20517;-87
2022/04/12 01:03:18;;;;;;;3.43;2.70;;;;;1.00;96832.00;;;;4998339;28;20445;-87
2022/04/12 01:05:50;;;;;;;3.60;2.90;;;;;1.30;96834.00;;;;4998630;28;20445;-88
2022/04/12 01:08:22;;;;;;;3.00;2.70;;;;;1.30;96826.00;;;;5001913;28;20457;-87
2022/04/12 01:10:53;;;;;;;2.67;2.47;;;;;1.40;96827.00;;;;5003900;28;20448;-87
2022/04/12 01:13:25;;;;;;;6.23;3.73;;;;;1.20;96821.00;;;;5002450;28;20437;-87
2022/04/12 01:15:58;;;;;;;3.07;2.73;;;;;0.90;96825.00;;;;5002911;28;20529;-88
2022/04/12 01:18:29;;;;;;;3.27;2.77;;;;;1.30;96831.00;;;;5002081;28;20452;-87
2022/04/12 01:21:01;;;;;;;3.53;3.10;;;;;1.10;96828.00;;;;5004250;28;20521;-87
2022/04/12 01:23:35;;;;;;;8.60;3.90;;;;;0.90;96822.00;;;;5004927;28;20445;-87
2022/04/12 01:26:08;;;;;;;4.03;3.27;;;;;0.90;96820.00;;;;5001951;28;20442;-87
2022/04/12 01:28:43;;;;;;;8.10;3.60;;;;;1.10;96815.00;;;;5004812;28;20473;-87
2022/04/12 01:31:15;;;;;;;3.20;2.17;;;;;0.60;96808.00;;;;5001902;28;20471;-87
2022/04/12 01:33:46;;;;;;;4.77;3.13;;;;;0.50;96812.00;;;;5001688;28;20910;-87
2022/04/12 01:36:17;;;;;;;3.23;2.93;;;;;0.60;96811.00;;;;5005748;28;20465;-87
2022/04/12 01:38:48;;;;;;;5.37;3.77;;;;;0.70;96811.00;;;;5003094;28;20521;-88
2022/04/12 01:41:37;;;;;;;4.90;3.37;;;;;0.90;96815.00;;;;4991830;28;20465;-87
2022/04/12 01:44:26;;;;;;;3.37;2.40;;;;;0.70;96809.00;;;;4988350;28;20434;-88
2022/04/12 01:47:17;;;;;;;3.13;2.83;;;;;1.00;96823.00;;;;5002430;28;20470;-88
2022/04/12 01:50:07;;;;;;;3.63;3.10;;;;;1.20;96804.00;;;;4990296;28;20445;-88
2022/04/12 01:52:56;;;;;;;6.37;3.13;;;;;1.10;96812.00;;;;5000467;28;20455;-87
2022/04/12 01:55:45;;;;;;;3.77;2.63;;;;;0.90;96817.00;;;;5001220;28;20438;-87
2022/04/12 01:58:36;;;;;;;3.57;3.27;;;;;0.50;96816.00;;;;4996732;28;20422;-87
2022/04/12 02:01:25;;;;;;;3.47;2.73;;;;;0.20;96819.00;;;;5004493;28;20465;-87
2022/04/12 02:04:14;;;;;;;2.97;2.77;;;;;0.10;96811.00;;;;4997303;28;20517;-87
2022/04/12 02:07:03;;;;;;;2.83;2.57;;;;;0.10;96816.00;;;;4997199;28;20457;-87
2022/04/12 02:09:52;;;;;;;5.30;3.00;;;;;0.50;96832.00;;;;5009027;28;20430;-88
2022/04/12 02:12:41;;;;;;;4.50;2.63;;;;;0.50;96832.00;;;;4999944;28;20462;-87
2022/04/12 02:15:33;;;;;;;3.10;2.87;;;;;0.80;96819.00;;;;4997059;28;20444;-88
2022/04/12 02:18:22;;;;;;;3.33;2.93;;;;;1.00;96832.00;;;;4997027;28;20444;-88
2022/04/12 02:21:11;;;;;;;3.50;3.20;;;;;1.20;96834.00;;;;4995138;28;20438;-88
2022/04/12 02:24:00;;;;;;;2.80;2.53;;;;;1.40;96827.00;;;;4998636;28;20442;-87
2022/04/12 02:26:49;;;;;;;3.00;2.53;;;;;1.20;96833.00;;;;4995625;28;20884;-87
2022/04/12 02:29:38;;;;;;;4.83;2.90;;;;;0.90;96826.00;;;;4993955;28;20434;-86
2022/04/12 02:32:29;;;;;;;3.50;2.87;;;;;0.60;96810.00;;;;4999596;28;20477;-88
2022/04/12 02:35:18;;;;;;;2.20;2.07;;;;;0.10;96818.00;;;;4997613;28;20437;-87
2022/04/12 02:38:07;;;;;;;3.10;2.90;;;;;0.40;96821.00;;;;4998468;28;20440;-88
2022/04/12 02:40:56;;;;;;;4.53;3.17;;;;;0.60;96816.00;;;;4997638;28;21055;-87
2022/04/12 02:43:45;;;;;;;3.23;2.93;;;;;0.30;96824.00;;;;4991632;28;20437;-88
2022/04/12 02:46:34;;;;;;;3.53;3.23;;;;;0.40;96818.00;;;;4996300;28;20445;-87
2022/04/12 02:49:25;;;;;;;3.47;3.10;;;;;0.30;96817.00;;;;4996447;28;20437;-87
2022/04/12 02:52:14;;;;;;;3.67;3.10;;;;;0.00;96814.00;;;;4994390;28;20458;-88
2022/04/12 02:55:03;;;;;;;4.27;3.23;;;;;0.10;96809.00;;;;4999029;28;20449;-87
2022/04/12 02:57:52;;;;;;;3.83;2.97;;;;;0.20;96803.00;;;;4999317;28;20430;-87
2022/04/12 03:00:41;;;;;;;4.77;3.50;;;;;0.20;96794.00;;;;4996453;28;20442;-88
2022/04/12 03:03:30;;;;;;;3.87;3.23;;;;;0.10;96799.00;;;;4996128;28;20434;-90
2022/04/12 03:06:21;;;;;;;3.23;2.93;;;;;0.20;96795.00;;;;4998993;28;20431;-88
2022/04/12 03:09:10;;;;;;;3.90;3.33;;;;;0.30;96800.00;;;;4991081;28;20477;-87
2022/04/12 03:11:59;;;;;;;3.20;2.90;;;;;0.60;96791.00;;;;4995397;28;20450;-87
2022/04/12 03:14:48;;;;;;;4.10;2.93;;;;;0.90;96794.00;;;;4992317;28;20453;-87
2022/04/12 03:17:37;;;;;;;4.33;3.93;;;;;0.70;96789.00;;;;5001500;28;20446;-87
2022/04/12 03:20:26;;;;;;;3.37;2.90;;;;;0.60;96790.00;;;;4996143;28;20420;-88
2022/04/12 03:23:17;;;;;;;13.20;9.30;;;;;0.40;96796.00;;;;4994171;28;20445;-87
2022/04/12 03:26:06;;;;;;;3.83;3.53;;;;;0.10;96783.00;;;;4988347;28;20438;-87
2022/04/12 03:28:55;;;;;;;5.07;2.97;;;;;0.10;96788.00;;;;4988364;28;20482;-87
2022/04/12 03:31:44;;;;;;;4.10;3.23;;;;;0.50;96797.00;;;;4982621;28;20474;-87
2022/04/12 03:34:33;;;;;;;4.17;3.43;;;;;0.50;96789.00;;;;4993884;28;20449;-87
2022/04/12 03:37:22;;;;;;;3.90;3.13;;;;;0.80;96783.00;;;;4987737;28;20438;-87
2022/04/12 03:40:13;;;;;;;2.60;2.40;;;;;0.50;96787.00;;;;5002114;28;20446;-86
2022/04/12 03:43:04;;;;;;;2.30;2.10;;;;;0.20;96794.00;;;;4997055;28;20460;-87
2022/04/12 03:45:53;;;;;;;4.10;3.67;;;;;0.10;96794.00;;;;4992256;28;20971;-86
2022/04/12 03:48:42;;;;;;;6.23;3.73;;;;;0.00;96797.00;;;;4992079;28;20463;-87
2022/04/12 03:51:31;;;;;;;3.63;3.20;;;;;0.30;96794.00;;;;4989268;28;20473;-87
2022/04/12 03:54:20;;;;;;;4.80;3.50;;;;;0.20;96803.00;;;;5001190;28;20438;-87
2022/04/12 03:57:11;;;;;;;2.73;2.13;;;;;-0.40;96795.00;;;;4988686;28;20430;-86
2022/04/12 04:00:00;;;;;;;3.13;2.30;;;;;-0.40;96798.00;;;;4992220;28;20850;-86
2022/04/12 04:02:49;;;;;;;4.73;2.83;;;;;-0.40;96805.00;;;;4987027;28;20459;-86
2022/04/12 04:05:39;;;;;;;4.93;3.43;;;;;-0.30;96802.00;;;;4986482;28;20442;-87
2022/04/12 04:08:28;;;;;;;2.00;1.90;;;;;-0.40;96800.00;;;;4985627;28;20474;-85
2022/04/12 04:11:17;;;;;;;3.47;3.27;;;;;-0.70;96792.00;;;;4996762;28;20450;-84
2022/04/12 04:14:09;;;;;;;2.10;2.00;;;;;-0.40;96791.00;;;;4994690;28;20450;-87
2022/04/12 04:17:00;;;;;;;1.50;1.40;;;;;-0.30;96804.00;;;;4993320;28;20449;-85
2022/04/12 04:19:49;;;;;;;3.63;3.33;;;;;0.00;96799.00;;;;4985050;28;20442;-88
2022/04/12 04:22:40;;;;;;;4.77;4.07;;;;;0.00;96805.00;;;;4989470;28;20450;-86
2022/04/12 04:25:29;;;;;;;1.83;1.70;;;;;0.30;96808.00;;;;4986091;28;20438;-86
2022/04/12 04:28:21;;;;;;;7.50;3.40;;;;;0.30;96803.00;;;;4988409;28;20461;-87
2022/04/12 04:31:12;;;;;;;1.63;1.53;;;;;0.20;96809.00;;;;4993598;28;20454;-87
2022/04/12 04:34:01;;;;;;;3.77;3.03;;;;;0.30;96815.00;;;;4981002;28;20418;-86
2022/04/12 04:36:50;;;;;;;6.50;3.17;;;;;0.30;96817.00;;;;4991667;28;20438;-86
2022/04/12 04:39:39;;;;;;;4.43;3.17;;;;;0.20;96814.00;;;;4996784;28;20438;-85
2022/04/12 04:42:28;;;;;;;4.13;3.37;;;;;0.00;96820.00;;;;4997805;28;20465;-87
2022/04/12 04:45:17;;;;;;;2.93;1.53;;;;;-0.30;96817.00;;;;4994696;28;20433;-85
2022/04/12 04:48:08;;;;;;;10.63;2.80;;;;;-0.10;96818.00;;;;5005131;23;20495;-86
2022/04/12 04:50:57;;;;;;;5.50;3.20;;;;;0.30;96839.00;;;;4999547;28;20422;-84
2022/04/12 04:53:55;;;;;;;4.23;3.47;;;;;0.70;96821.00;;;;5013437;28;20461;-85
2022/04/12 04:56:44;;;;;;;4.73;4.33;;;;;0.80;96836.00;;;;5006374;28;20967;-85
2022/04/12 04:59:33;;;;;;;7.03;3.67;;;;;0.90;96836.00;;;;5010919;28;20808;-84
2022/04/12 05:02:22;;;;;;;3.80;3.40;;;;;0.60;96846.00;;;;5004169;28;20464;-84
2022/04/12 05:05:13;;;;;;;2.50;2.30;;;;;0.40;96837.00;;;;4999879;28;20422;-84
2022/04/12 05:08:02;;;;;;;4.00;3.70;;;;;0.40;96848.00;;;;5008916;28;20433;-84
2022/04/12 05:10:51;;;;;;;11.63;6.07;;;;;0.20;96850.00;;;;5009697;28;20982;-83
2022/04/12 05:13:40;;;;;;;3.77;2.97;;;;;0.30;96855.00;;;;5007900;28;20437;-85
2022/04/12 05:16:29;;;;;;;4.63;3.67;;;;;0.60;96866.00;;;;5022778;28;20440;-84
2022/04/12 05:19:18;;;;;;;5.67;4.73;;;;;0.60;96868.00;;;;5012025;28;20433;-86
2022/04/12 05:22:09;;;;;;;3.90;3.47;;;;;1.00;96871.00;;;;5012317;28;20457;-85
2022/04/12 05:24:58;;;;;;;6.10;3.10;;;;;1.30;96873.00;;;;5012310;28;20429;-86
2022/04/12 05:27:48;;;;;;;4.40;3.80;;;;;1.40;96859.00;;;;5011538;28;20457;-85
2022/04/12 05:30:37;;;;;;;3.97;3.60;;;;;1.60;96869.00;;;;5010829;28;20437;-87
2022/04/12 05:33:26;;;;;;;4.80;4.40;;;;;2.20;96867.00;;;;5013622;28;20469;-86
2022/04/12 05:36:15;;;;;;;5.13;3.67;;;;;2.40;96881.00;;;;5014100;28;20436;-87
2022/04/12 05:39:05;;;;;;;7.80;6.13;;;;;2.30;96883.00;;;;5012555;28;20438;-85
2022/04/12 05:41:54;;;;;;;6.07;5.37;;;;;2.40;96892.00;;;;5010557;28;20459;-85
2022/04/12 05:44:44;;;;;;;5.27;4.40;;;;;2.60;96894.00;;;;5010349;28;20432;-85
2022/04/12 05:47:42;;;;;;;7.77;4.70;;;;;2.80;96904.00;;;;5013429;28;20441;-85
2022/04/12 05:50:31;;;;;;;9.20;3.93;;;;;2.50;96909.00;;;;5010656;28;20487;-86
2022/04/12 05:53:22;;;;;;;5.23;4.83;;;;;2.70;96915.00;;;;5009102;28;20468;-85
2022/04/12 05:56:12;;;;;;;4.10;3.53;;;;;2.60;96923.00;;;;4999799;28;20437;-87
2022/04/12 05:59:01;;;;;;;6.03;3.93;;;;;2.50;96919.00;;;;5010106;28;20430;-86
2022/04/12 06:01:50;;;;;;;6.00;4.20;;;;;2.60;96936.00;;;;5005479;28;20475;-86
2022/04/12 06:04:39;;;;;;;3.70;3.27;;;;;2.70;96944.00;;;;5004631;28;20450;-86
2022/04/12 06:07:32;;;;;;;7.03;4.10;;;;;3.10;96948.00;;;;5010409;28;20453;-84
2022/04/12 06:10:21;;;;;;;5.50;3.97;;;;;3.20;96936.00;;;;5005003;28;20476;-86
2022/04/12 06:13:13;;;;;;;5.83;3.27;;;;;3.70;96941.00;;;;5000314;28;20477;-86
2022/04/12 06:16:02;;;;;;;7.97;4.43;;;;;3.80;96953.00;;;;5004628;28;20436;-85
2022/04/12 06:18:52;;;;;;;5.93;3.90;;;;;4.10;96948.00;;;;4992194;28;20434;-86
2022/04/12 06:21:41;;;;;;;4.20;3.53;;;;;4.60;96953.00;;;;5011303;28;20437;-87
2022/04/12 06:24:30;;;;;;;4.00;3.60;;;;;4.50;96948.00;;;;5000641;28;20425;-86
2022/04/12 06:27:19;;;;;;;5.97;4.50;;;;;5.10;96956.00;;;;5001664;28;20441;-86
2022/04/12 06:30:11;;;;;;;6.80;4.37;;;;;5.60;96964.00;;;;5005160;28;20466;-86
2022/04/12 06:33:01;;;;;;;6.27;5.00;;;;;6.00;96968.00;;;;5003263;28;20802;-85
2022/04/12 06:35:49;;;;;;;8.60;5.00;;;;;6.30;96977.00;;;;5004787;28;20434;-86
2022/04/12 06:38:38;;;;;;;6.87;4.47;;;;;6.60;96969.00;;;;5003641;28;20815;-87
2022/04/12 06:41:27;;;;;;;6.83;3.97;;;;;6.60;96966.00;;;;5009672;28;20436;-86
2022/04/12 06:44:16;;;;;;;12.73;4.03;;;;;6.70;96974.00;;;;5008193;28;20202;-87
2022/04/12 06:47:07;;;;;;;6.13;3.77;;;;;6.70;96977.00;;;;5010094;28;20198;-87
2022/04/12 06:49:56;;;;;;;7.90;4.30;;;;;7.00;96982.00;;;;5008626;28;20229;-86
2022/04/12 06:52:45;;;;;;;4.40;3.43;;;;;7.20;96982.00;;;;5004376;28;20221;-86
2022/04/12 06:55:34;;;;;;;5.57;3.90;;;;;7.20;96978.00;;;;5000812;28;20217;-84
2022/04/12 06:58:23;;;;;;;9.73;5.17;;;;;6.90;96978.00;;;;5002666;28;20214;-85
2022/04/12 07:01:12;;;;;;;6.17;4.13;;;;;7.60;96977.00;;;;5009470;28;20714;-86
2022/04/12 07:04:03;;;;;;;8.37;4.37;;;;;7.70;96972.00;;;;5009739;28;20667;-87
2022/04/12 07:06:52;;;;;;;14.67;4.40;;;;;7.90;96966.00;;;;5011477;28;20565;-86
2022/04/12 07:09:41;;;;;;;5.80;3.47;;;;;8.10;96964.00;;;;5009959;28;20222;-86
2022/04/12 07:12:30;;;;;;;5.40;3.90;;;;;8.40;96977.00;;;;5004550;28;20233;-85
2022/04/12 07:15:19;;;;;;;7.07;4.37;;;;;8.50;96976.00;;;;5018253;23;20230;-70
2022/04/12 07:18:08;;;;;;;5.80;4.10;;;;;8.10;96981.00;;;;4983438;28;20214;-70
2022/04/12 07:20:58;;;;;;;7.47;4.40;;;;;8.30;96968.00;;;;4984955;28;20466;-69
2022/04/12 07:23:49;;;;;;;6.73;4.27;;;;;8.60;96973.00;;;;4989431;28;20223;-69
2022/04/12 07:26:38;;;;;;;7.13;4.07;;;;;8.80;96972.00;;;;4981335;28;20210;-69
2022/04/12 07:29:27;;;;;;;6.37;3.43;;;;;9.00;96980.00;;;;4979656;28;20254;-70
2022/04/12 07:32:16;;;;;;;6.20;3.17;;;;;9.40;96981.00;;;;4976970;28;20227;-69
2022/04/12 07:35:06;;;;;;;13.70;3.63;;;;;9.30;96982.00;;;;4981191;28;20237;-69
2022/04/12 07:37:56;;;;;;;7.43;4.03;;;;;9.00;96973.00;;;;4982402;28;20681;-69
2022/04/12 07:40:45;;;;;;;9.33;3.37;;;;;10.00;96985.00;;;;4981762;28;20210;-68
2022/04/12 07:43:34;;;;;;;4.77;3.13;;;;;10.30;96986.00;;;;4975331;28;20694;-68
2022/04/12 07:46:23;;;;;;;12.50;3.23;;;;;10.50;96989.00;;;;4978705;28;20218;-69
2022/04/12 07:49:12;;;;;;;5.37;2.83;;;;;10.60;96982.00;;;;4983287;28;20215;-68
2022/04/12 07:52:01;;;;;;;6.30;3.70;;;;;10.80;96986.00;;;;4980316;28;20202;-70
2022/04/12 07:54:51;;;;;;;8.27;4.33;;;;;11.00;96992.00;;;;4978625;28;20214;-68
2022/04/12 07:57:40;;;;;;;5.73;3.40;;;;;11.20;96985.00;;;;4976618;28;20203;-69
2022/04/12 08:00:29;;;;;;;4.40;2.87;;;;;11.50;96984.00;;;;4981431;28;20221;-69
2022/04/12 08:03:20;;;;;;;4.13;3.37;;;;;11.80;96992.00;;;;4973947;28;20239;-68
2022/04/12 08:06:09;;;;;;;3.77;2.90;;;;;12.00;96993.00;;;;4982053;28;20595;-69
2022/04/12 08:08:58;;;;;;;6.27;2.70;;;;;12.10;96992.00;;;;4979288;28;20218;-68
2022/04/12 08:11:48;;;;;;;4.97;2.27;;;;;12.50;97003.00;;;;4981353;28;20218;-68
2022/04/12 08:14:37;;;;;;;2.67;2.10;;;;;12.30;97000.00;;;;4977974;28;20203;-69
2022/04/12 08:17:26;;;;;;;3.30;2.50;;;;;12.60;96997.00;;;;4992456;28;20225;-68
2022/04/12 08:20:15;;;;;;;3.30;3.00;;;;;12.60;97003.00;;;;4990692;28;20203;-69
2022/04/12 08:23:04;;;;;;;3.57;2.77;;;;;12.50;96993.00;;;;4980775;28;20233;-68
2022/04/12 08:25:53;;;;;;;4.83;2.40;;;;;12.80;96997.00;;;;4976887;28;20218;-69
2022/04/12 08:28:44;;;;;;;4.97;3.03;;;;;13.10;96993.00;;;;4980843;28;20261;-68
2022/04/12 08:31:33;;;;;;;3.27;2.43;;;;;13.20;96992.00;;;;4981262;28;20223;-68
2022/04/12 08:34:22;;;;;;;5.53;2.97;;;;;13.10;96989.00;;;;4977708;28;20201;-69
2022/04/12 08:37:11;;;;;;;4.33;2.67;;;;;13.30;96984.00;;;;4991625;28;20209;-68
2022/04/12 08:40:00;;;;;;;4.00;2.67;;;;;13.60;96992.00;;;;4977142;28;20598;-69
2022/04/12 08:42:49;;;;;;;5.83;2.70;;;;;13.90;96992.00;;;;4988932;28;20226;-68
2022/04/12 08:45:45;;;;;;;2.70;2.33;;;;;13.90;96990.00;;;;4976712;28;20215;-70
2022/04/12 08:48:35;;;;;;;4.33;2.60;;;;;14.20;96989.00;;;;4980548;28;20685;-70
2022/04/12 08:51:27;;;;;;;3.83;2.67;;;;;14.40;96990.00;;;;4991935;28;20237;-69
2022/04/12 08:54:18;;;;;;;3.90;2.67;;;;;14.30;96975.00;;;;4978723;28;20221;-69
2022/04/12 08:57:07;;;;;;;8.83;4.43;;;;;14.70;96984.00;;;;4980477;28;20261;-69
2022/04/12 08:59:56;;;;;;;5.97;4.00;;;;;14.50;96979.00;;;;4986372;28;20705;-70
2022/04/12 09:02:58;;;;;;;8.33;3.47;;;;;14.90;96988.00;;;;4981312;28;20756;-69
2022/04/12 09:05:48;;;;;;;5.70;3.07;;;;;15.20;96983.00;;;;4975699;28;20814;-69
2022/04/12 09:08:36;;;;;;;5.80;3.40;;;;;15.40;96982.00;;;;4979645;28;20196;-69
2022/04/12 09:11:27;;;;;;;5.30;3.13;;;;;15.60;96983.00;;;;4980881;28;20484;-69
2022/04/12 09:14:16;;;;;;;3.53;3.23;;;;;15.80;96975.00;;;;4975206;28;20214;-69
2022/04/12 09:17:05;;;;;;;6.27;2.53;;;;;16.00;96979.00;;;;4980389;28;20218;-69
2022/04/12 09:19:56;;;;;;;6.90;3.00;;;;;15.20;96969.00;;;;4977781;28;20207;-69
2022/04/12 09:22:45;;;;;;;4.17;2.80;;;;;15.80;96978.00;;;;4981380;28;20234;-69
2022/04/12 09:25:34;;;;;;;5.07;3.30;;;;;16.00;96971.00;;;;4984518;28;20206;-69
2022/04/12 09:28:23;;;;;;;4.83;2.83;;;;;16.10;96976.00;;;;4987888;28;20685;-69
2022/04/12 09:31:20;;;;;;;5.30;3.13;;;;;16.50;96974.00;;;;4981181;28;20785;-70
2022/04/12 09:34:09;;;;;;;5.07;3.27;;;;;16.50;96972.00;;;;4989492;28;20227;-69
2022/04/12 09:37:02;;;;;;;5.07;3.10;;;;;16.60;96975.00;;;;4990107;28;20744;-69
2022/04/12 09:40:07;;;;;;;7.33;3.40;;;;;16.90;96962.00;;;;4974406;28;20204;-69
2022/04/12 09:42:57;;;;;;;3.20;2.90;;;;;16.90;96967.00;;;;4975956;28;20238;-70
2022/04/12 09:45:46;;;;;;;6.27;3.40;;;;;16.30;96952.00;;;;4986618;28;20229;-69
2022/04/12 09:48:35;;;;;;;7.20;3.50;;;;;16.10;96950.00;;;;4979519;28;20200;-69
2022/04/12 09:51:39;;;;;;;3.47;2.90;;;;;16.50;96951.00;;;;4992092;28;21042;-69
2022/04/12 09:54:34;;;;;;;8.37;3.83;;;;;17.30;96963.00;;;;4976816;28;20203;-69
2022/04/12 09:57:24;;;;;;;3.70;3.40;;;16.10;67.30;17.60;96965.00;;;;4991529;28;20222;-69
2022/04/12 10:00:14;;;;;;;4.33;3.00;;;16.20;65.40;17.30;96962.00;;;;4974461;28;20573;-69
2022/04/12 10:03:07;;;;;;;3.67;2.93;;;16.40;62.00;17.90;96958.00;;;;4981600;28;20238;-69
2022/04/12 10:05:56;;;;;;;5.10;2.97;;;16.50;63.40;17.60;96960.00;;;;4987697;28;20202;-69
2022/04/12 10:08:45;;;;;;;7.57;3.13;;;16.60;59.60;17.70;96950.00;;;;4982699;28;20207;-69
2022/04/12 10:11:37;;;;;;;3.67;2.93;;;16.70;59.70;18.30;96947.00;;;;4984128;28;20234;-69
2022/04/12 10:14:26;;;;;;;4.40;2.90;;;16.90;59.90;17.90;96939.00;;;;4980684;28;20206;-68
2022/04/12 10:17:15;;;;;;;5.57;3.13;;;16.80;58.30;18.00;96932.00;;;;4983399;28;20202;-69
2022/04/12 10:20:06;;;;;;;3.67;2.67;;;16.90;58.10;18.20;96932.00;;;;4976781;28;20211;-68
2022/04/12 10:22:55;;;;;;;4.73;2.47;;;17.00;58.80;18.70;96938.00;;;;4981649;28;20237;-68
2022/04/12 10:25:43;;;;;;;7.43;2.63;;;17.20;58.30;19.00;96944.00;;;;4975053;28;20199;-68
2022/04/12 10:28:34;;;;;;;5.33;2.87;;;17.40;57.00;18.70;96946.00;;;;4972473;28;20207;-68
2022/04/12 10:31:25;;;;;;;3.43;2.87;;;17.70;57.20;18.70;96934.00;;;;4982172;28;20230;-69
2022/04/12 10:34:30;;;;;;;7.57;4.00;;;17.70;57.00;19.00;96921.00;;;;4987048;28;20765;-69
2022/04/12 10:37:20;;;;;;;3.00;2.73;;;17.80;57.40;18.90;96928.00;;;;4989324;28;20349;-65
2022/04/12 10:40:29;;;;;;;7.53;3.73;;;18.00;57.10;20.00;96922.00;;;;4978326;28;20202;-69
2022/04/12 10:43:29;;;;;;;3.87;3.17;;;18.20;56.60;20.10;96918.00;;;;4988441;28;20241;-69
2022/04/12 10:46:19;;;;;;;2.90;2.57;;;18.40;56.80;19.90;96914.00;;;;4978065;28;20194;-70
2022/04/12 10:49:08;;;;;;;5.20;2.97;;;18.60;56.10;18.90;96902.00;;;;4979315;28;20234;-68
2022/04/12 10:52:00;;;;;;;5.27;3.80;;;18.60;55.00;19.80;96907.00;;;;4980033;28;20227;-69
2022/04/12 10:54:49;;;;;;;6.57;3.37;;;18.60;55.50;20.10;96916.00;;;;4981784;28;20214;-70
2022/04/12 10:57:38;;;;;;;3.17;2.57;;;18.80;55.50;19.60;96905.00;;;;4984527;28;20209;-69
2022/04/12 11:00:31;;;;;;;5.47;2.70;;;18.90;53.00;20.30;96897.00;;;;4977051;28;20207;-69
2022/04/12 11:03:29;;;;;;;3.70;2.67;;;19.00;53.20;21.10;96895.00;;;;4984497;28;20249;-69
2022/04/12 11:06:24;;;;;;;4.73;2.97;;;19.20;53.60;20.90;96895.00;;;;4977980;28;20203;-69
2022/04/12 11:09:17;;;;;;;5.77;2.60;;;19.40;54.20;20.20;96916.00;;;;4984769;28;20213;-70
2022/04/12 11:12:06;;;;;;;4.90;3.10;;;19.30;52.60;19.90;96897.00;;;;4979546;28;20231;-69
2022/04/12 11:15:25;;;;;;;3.87;2.17;;;19.20;52.00;20.80;96888.00;;;;4979577;28;20202;-69
2022/04/12 11:18:16;;;;;;;3.93;3.03;;;19.40;53.10;19.50;96886.00;;;;4977841;28;20206;-69
2022/04/12 11:21:06;;;;;;;3.27;2.73;;;19.50;50.70;19.70;96886.00;;;;4980679;28;20689;-69
2022/04/12 11:24:01;;;;;;;6.47;2.97;;;19.50;51.30;19.50;96884.00;;;;4973307;28;20227;-68
2022/04/12 11:27:06;;;;;;;4.07;2.63;;;19.60;52.00;20.10;96881.00;;;;4979794;28;20199;-69
2022/04/12 11:29:58;;;;;;;3.83;2.70;;;19.70;50.60;19.10;96870.00;;;;4985918;28;20592;-69
2022/04/12 11:32:46;;;;;;;3.87;2.50;;;19.60;49.50;20.40;96874.00;;;;4975104;28;20238;-69
2022/04/12 11:35:37;;;;;;;5.40;2.37;;;19.50;50.30;22.30;96871.00;;;;4980742;28;20211;-69
2022/04/12 11:38:27;;;;;;;5.73;2.50;;;19.80;52.10;22.00;96871.00;;;;4980251;28;20219;-69
2022/04/12 11:41:16;;;;;;;3.10;2.50;;;20.20;51.50;21.00;96874.00;;;;4973384;28;20204;-69
2022/04/12 11:44:06;;;;;;;4.80;2.80;;;20.50;48.90;19.60;96871.00;;;;4985859;28;20222;-69
2022/04/12 11:46:57;;;;;;;2.83;2.43;;;20.00;48.60;19.70;96865.00;;;;4980769;28;20202;-69
2022/04/12 11:49:46;;;;;;;4.83;2.67;;;19.70;48.70;19.80;96859.00;;;;4987948;28;20203;-69
2022/04/12 11:52:36;;;;;;;3.03;2.20;;;19.50;49.40;18.70;96876.00;;;;4980859;28;20238;-70
2022/04/12 11:55:27;;;;;;;3.30;2.70;;;19.40;49.30;18.30;96851.00;;;;4983170;28;20210;-69
2022/04/12 11:58:16;;;;;;;5.50;3.50;;;18.80;49.30;19.10;96862.00;;;;4976170;28;20226;-69
2022/04/12 12:01:05;;;;;;;3.07;2.77;;;18.80;49.70;19.50;96858.00;;;;4979637;28;20589;-68
2022/04/12 12:03:53;;;;;;;5.97;3.10;;;18.70;48.80;21.70;96864.00;;;;4988551;28;20234;-69
2022/04/12 12:06:56;;;;;;;2.63;2.43;;;19.20;50.90;23.10;96857.00;;;;4986248;28;20217;-68
2022/04/12 12:09:53;;;;;;;4.80;2.57;;;20.00;51.50;23.70;96871.00;;;;4973621;28;20206;-70
2022/04/12 12:12:46;;;;;;;2.53;2.30;;;20.80;50.70;24.40;96869.00;;;;4986287;28;20231;-70
2022/04/12 12:15:36;;;;;;;2.73;2.40;;;21.50;50.10;24.30;96861.00;;;;4973094;28;20218;-70
2022/04/12 12:18:25;;;;;;;3.33;2.60;;;22.10;48.80;21.40;96860.00;;;;4981977;28;20662;-68
2022/04/12 12:21:17;;;;;;;4.27;2.67;;;21.90;45.00;21.90;96869.00;;;;4976771;28;20210;-69
2022/04/12 12:24:07;;;;;;;2.57;2.37;;;21.60;47.30;24.10;96858.00;;;;4984894;28;20709;-69
2022/04/12 12:26:57;;;;;;;2.77;2.23;;;21.80;48.10;24.30;96863.00;;;;4978963;28;20625;-70
2022/04/12 12:29:47;;;;;;;2.53;2.30;;;22.20;46.50;25.00;96861.00;;;;4984850;28;20213;-69
2022/04/12 12:32:38;;;;;;;3.37;2.43;;;22.60;46.80;24.90;96855.00;;;;4975145;28;20233;-69
2022/04/12 12:35:28;;;;;;;3.33;2.80;;;22.90;46.30;23.20;96849.00;;;;4975920;28;20265;-70
2022/04/12 12:38:19;;;;;;;4.33;2.40;;;23.20;45.30;22.90;96852.00;;;;4984129;28;20211;-70
2022/04/12 12:41:08;;;;;;;3.93;2.00;;;23.20;44.80;25.20;96853.00;;;;4973516;28;20212;-70
2022/04/12 12:43:58;;;;;;;4.33;2.77;;;23.30;46.20;23.00;96835.00;;;;4986416;28;20233;-69
2022/04/12 12:46:48;;;;;;;3.83;2.47;;;23.10;43.90;24.20;96844.00;;;;4979298;28;20703;-70
2022/04/12 12:49:38;;;;;;;2.80;2.37;;;22.80;44.90;23.80;96839.00;;;;4984262;28;20574;-69
2022/04/12 12:52:32;;;;;;;4.20;2.23;;;22.80;43.80;23.30;96830.00;;;;4977765;28;20231;-69
2022/04/12 12:55:23;;;;;;;5.07;2.70;;;22.80;43.70;21.80;96820.00;;;;4981341;28;20205;-69
2022/04/12 12:58:16;;;;;;;6.20;2.47;;;22.80;43.30;23.20;96826.00;;;;4972942;28;20213;-69
2022/04/12 13:01:05;;;;;;;2.83;1.87;;;22.70;43.60;24.90;96821.00;;;;4972816;28;20214;-69
2022/04/12 13:03:59;;;;;;;6.83;2.57;;;22.80;44.30;26.50;96823.00;;;;4983197;28;20225;-69
2022/04/12 13:06:47;;;;;;;2.47;1.87;;;23.20;46.00;27.30;96823.00;;;;4982337;28;20201;-70
2022/04/12 13:09:42;;;;;;;2.33;2.13;;;24.40;44.40;27.20;96827.00;;;;4978475;28;20557;-70
2022/04/12 13:12:31;;;;;;;4.33;2.60;;;24.40;44.80;27.60;96819.00;;;;4983575;28;20133;-69
2022/04/12 13:15:20;;;;;;;3.07;2.40;;;24.90;44.40;26.60;96823.00;;;;4985752;28;20701;-69
2022/04/12 13:18:08;;;;;;;4.83;2.17;;;25.10;42.10;27.10;96832.00;;;;4975044;28;20219;-69
2022/04/12 13:20:58;;;;;;;2.83;2.53;;;25.20;42.90;26.70;96829.00;;;;4981296;28;20198;-69
2022/04/12 13:23:47;;;;;;;4.57;2.60;;;25.20;43.20;26.80;96831.00;;;;4989695;28;20221;-68
2022/04/12 13:26:36;;;;;;;3.92;2.63;;;25.20;42.30;26.50;96824.00;;;;4984352;28;20201;-68
2022/04/12 13:29:28;;;;;;;3.08;2.42;;;25.40;42.10;25.40;96825.00;;;;4984375;28;20220;-67
2022/04/12 13:32:16;;;;;;;3.42;2.65;;;25.40;41.40;25.80;96813.00;;;;5007243;23;20243;-60
2022/04/12 13:35:07;;;;;;;2.80;2.40;;;25.20;41.30;24.10;96815.00;;;;4982823;28;20220;-68
2022/04/12 13:37:58;;;;;;;3.43;2.83;;;24.40;40.00;24.40;96815.00;;;;4991433;28;20210;-73
2022/04/12 13:40:47;;;;;;;2.60;2.40;;;23.70;40.90;25.40;96828.00;;;;4980155;28;20236;-72